createdAt,value
2022-10-12T00:01:22.966Z,100.00
2022-10-12T00:03:51.781Z,100.00
2022-10-12T00:06:21.145Z,100.00
2022-10-12T00:08:51.988Z,100.00
2022-10-12T00:11:21.937Z,100.00
2022-10-12T00:13:51.484Z,100.00
2022-10-12T00:16:20.945Z,100.00
2022-10-12T00:18:51.057Z,100.00
2022-10-12T00:21:19.691Z,100.00
2022-10-12T00:23:48.987Z,100.00
2022-10-12T00:26:19.689Z,100.00
2022-10-12T00:28:48.313Z,100.00
2022-10-12T00:31:18.450Z,100.00
2022-10-12T00:33:47.290Z,100.00
2022-10-12T00:36:17.104Z,100.00
2022-10-12T00:38:45.889Z,100.00
2022-10-12T00:41:15.071Z,100.00
2022-10-12T00:43:45.347Z,100.00
2022-10-12T00:46:15.780Z,100.00
2022-10-12T00:48:44.965Z,100.00
2022-10-12T00:51:14.020Z,100.00
2022-10-12T00:53:44.587Z,100.00
2022-10-12T00:56:16.319Z,100.00
2022-10-12T00:58:46.421Z,100.00
2022-10-12T01:01:14.859Z,100.00
2022-10-12T01:03:43.781Z,100.00
2022-10-12T01:06:13.122Z,100.00
2022-10-12T01:08:41.985Z,100.00
2022-10-12T01:11:10.430Z,100.00
2022-10-12T01:13:38.942Z,100.00
2022-10-12T01:16:13.466Z,100.00
2022-10-12T01:18:44.747Z,100.00
2022-10-12T01:21:18.814Z,100.00
2022-10-12T01:24:05.443Z,100.00
2022-10-12T01:26:40.394Z,100.00
2022-10-12T01:29:19.165Z,100.00
2022-10-12T01:31:50.124Z,100.00
2022-10-12T01:34:21.078Z,100.00
2022-10-12T01:36:53.891Z,100.00
2022-10-12T01:39:25.193Z,100.00
2022-10-12T01:41:55.708Z,100.00
2022-10-12T01:44:25.012Z,100.00
2022-10-12T01:46:55.538Z,100.00
2022-10-12T01:49:28.014Z,100.00
2022-10-12T01:52:20.293Z,100.00
2022-10-12T01:54:55.964Z,100.00
2022-10-12T01:57:30.134Z,100.00
2022-10-12T02:00:02.819Z,100.00
2022-10-12T02:02:37.999Z,100.00
2022-10-12T02:05:10.315Z,100.00
2022-10-12T02:07:42.390Z,100.00
2022-10-12T02:10:14.789Z,100.00
2022-10-12T02:12:44.129Z,100.00
2022-10-12T02:15:14.244Z,100.00
2022-10-12T02:17:47.236Z,100.00
2022-10-12T02:20:17.934Z,100.00
2022-10-12T02:22:48.499Z,100.00
2022-10-12T02:25:20.247Z,100.00
2022-10-12T02:27:51.102Z,100.00
2022-10-12T02:30:21.376Z,100.00
2022-10-12T02:32:55.428Z,100.00
2022-10-12T02:35:25.565Z,100.00
2022-10-12T02:37:57.134Z,100.00
2022-10-12T02:40:27.699Z,100.00
2022-10-12T02:43:09.729Z,100.00
2022-10-12T02:45:40.533Z,100.00
2022-10-12T02:48:12.441Z,100.00
2022-10-12T02:50:41.331Z,100.00
2022-10-12T02:53:10.528Z,100.00
2022-10-12T02:55:39.425Z,100.00
2022-10-12T02:58:08.014Z,100.00
2022-10-12T03:00:36.795Z,100.00
2022-10-12T03:03:05.174Z,100.00
2022-10-12T03:05:35.205Z,100.00
2022-10-12T03:08:03.785Z,100.00
2022-10-12T03:10:32.361Z,100.00
2022-10-12T03:13:01.877Z,100.00
2022-10-12T03:15:30.449Z,100.00
2022-10-12T03:17:59.129Z,100.00
2022-10-12T03:20:27.719Z,100.00
2022-10-12T03:22:57.597Z,100.00
2022-10-12T03:25:26.383Z,100.00
2022-10-12T03:27:54.953Z,100.00
2022-10-12T03:30:23.826Z,100.00
2022-10-12T03:32:52.477Z,100.00
2022-10-12T03:35:21.122Z,100.00
2022-10-12T03:37:50.051Z,100.00
2022-10-12T03:40:19.881Z,100.00
2022-10-12T03:42:48.449Z,100.00
2022-10-12T03:45:17.331Z,100.00
2022-10-12T03:47:45.765Z,100.00
2022-10-12T03:50:14.467Z,100.00
2022-10-12T03:52:43.179Z,100.00
2022-10-12T03:55:11.731Z,100.00
2022-10-12T03:57:41.943Z,100.00
2022-10-12T04:00:14.309Z,100.00
2022-10-12T04:02:42.862Z,100.00
2022-10-12T04:05:11.632Z,100.00
2022-10-12T04:07:41.733Z,100.00
2022-10-12T04:10:10.498Z,100.00
2022-10-12T04:12:39.568Z,100.00
2022-10-12T04:15:10.368Z,100.00
2022-10-12T04:17:39.435Z,100.00
2022-10-12T04:20:08.841Z,100.00
2022-10-12T04:22:37.365Z,100.00
2022-10-12T04:25:06.260Z,100.00
2022-10-12T04:27:35.062Z,100.00
2022-10-12T04:30:04.322Z,100.00
2022-10-12T04:32:34.315Z,100.00
2022-10-12T04:35:03.067Z,100.00
2022-10-12T04:37:31.535Z,100.00
2022-10-12T04:39:59.909Z,100.00
2022-10-12T04:42:28.497Z,100.00
2022-10-12T04:44:57.079Z,100.00
2022-10-12T04:47:25.477Z,100.00
2022-10-12T04:49:55.392Z,100.00
2022-10-12T04:52:23.878Z,100.00
2022-10-12T04:54:52.655Z,100.00
2022-10-12T04:57:21.120Z,100.00
2022-10-12T04:59:49.959Z,100.00
2022-10-12T05:02:18.589Z,100.00
2022-10-12T05:04:47.686Z,100.00
2022-10-12T05:07:19.936Z,100.00
2022-10-12T05:09:48.576Z,100.00
2022-10-12T05:12:17.459Z,100.00
2022-10-12T05:14:46.332Z,100.00
2022-10-12T05:17:15.400Z,100.00
2022-10-12T05:19:44.116Z,100.00
2022-10-12T05:22:13.049Z,100.00
2022-10-12T05:24:43.058Z,100.00
2022-10-12T05:27:12.161Z,100.00
2022-10-12T05:29:41.303Z,100.00
2022-10-12T05:32:10.432Z,100.00
2022-10-12T05:34:39.412Z,100.00
2022-10-12T05:37:08.066Z,100.00
2022-10-12T05:39:37.332Z,100.00
2022-10-12T05:42:07.498Z,100.00
2022-10-12T05:44:36.242Z,100.00
2022-10-12T05:47:05.155Z,100.00
2022-10-12T05:49:33.749Z,100.00
2022-10-12T05:52:02.371Z,100.00
2022-10-12T05:54:30.940Z,100.00
2022-10-12T05:56:59.952Z,100.00
2022-10-12T05:59:30.141Z,100.00
2022-10-12T06:01:58.775Z,100.00
2022-10-12T06:04:27.582Z,100.00
2022-10-12T06:06:56.323Z,100.00
2022-10-12T06:09:24.910Z,100.00
2022-10-12T06:11:53.507Z,100.00
2022-10-12T06:14:22.028Z,100.00
2022-10-12T06:16:54.450Z,100.00
2022-10-12T06:19:23.814Z,100.00
2022-10-12T06:21:52.502Z,100.00
2022-10-12T06:24:21.072Z,100.00
2022-10-12T06:26:49.808Z,100.00
2022-10-12T06:29:18.992Z,100.00
2022-10-12T06:31:51.655Z,100.00
2022-10-12T06:34:22.072Z,100.00
2022-10-12T06:36:52.436Z,100.00
2022-10-12T06:39:21.867Z,100.00
2022-10-12T06:41:50.668Z,100.00
2022-10-12T06:44:22.653Z,100.00
2022-10-12T06:46:51.840Z,100.00
2022-10-12T06:49:22.093Z,100.00
2022-10-12T06:51:50.785Z,100.00
2022-10-12T06:54:19.353Z,100.00
2022-10-12T06:56:48.420Z,100.00
2022-10-12T06:59:19.110Z,100.00
2022-10-12T07:01:47.963Z,100.00
2022-10-12T07:04:17.274Z,100.00
2022-10-12T07:06:47.360Z,100.00
2022-10-12T07:09:16.067Z,100.00
2022-10-12T07:11:44.692Z,100.00
2022-10-12T07:14:14.397Z,100.00
2022-10-12T07:16:43.312Z,100.00
2022-10-12T07:19:12.015Z,100.00
2022-10-12T07:21:40.950Z,100.00
2022-10-12T07:24:13.195Z,100.00
2022-10-12T07:26:41.905Z,100.00
2022-10-12T07:29:10.650Z,100.00
2022-10-12T07:31:39.319Z,100.00
2022-10-12T07:34:07.973Z,100.00
2022-10-12T07:36:57.966Z,100.00
2022-10-12T07:39:26.762Z,100.00
2022-10-12T07:41:55.854Z,100.00
2022-10-12T07:44:24.758Z,100.00
2022-10-12T07:46:53.749Z,100.00
2022-10-12T07:49:22.435Z,100.00
2022-10-12T07:51:51.065Z,100.00
2022-10-12T07:54:22.590Z,100.00
2022-10-12T07:56:55.617Z,100.00
2022-10-12T07:59:25.086Z,100.00
2022-10-12T08:01:53.737Z,100.00
2022-10-12T08:04:22.295Z,100.00
2022-10-12T08:06:50.852Z,100.00
2022-10-12T08:09:19.474Z,100.00
2022-10-12T08:11:48.109Z,100.00
2022-10-12T08:14:18.044Z,100.00
2022-10-12T08:16:46.604Z,100.00
2022-10-12T08:19:21.266Z,100.00
2022-10-12T08:21:50.527Z,100.00
2022-10-12T08:24:19.109Z,100.00
2022-10-12T08:26:48.272Z,100.00
2022-10-12T08:29:18.231Z,100.00
2022-10-12T08:31:49.615Z,100.00
2022-10-12T08:34:18.484Z,100.00
2022-10-12T08:36:47.863Z,100.00
2022-10-12T08:39:18.600Z,100.00
2022-10-12T08:41:52.134Z,100.00
2022-10-12T08:44:45.264Z,100.00
2022-10-12T08:47:16.771Z,100.00
2022-10-12T08:49:49.645Z,100.00
2022-10-12T08:52:29.755Z,100.00
2022-10-12T08:55:02.435Z,100.00
2022-10-12T08:57:37.513Z,100.00
2022-10-12T09:00:14.212Z,100.00
2022-10-12T09:02:54.736Z,100.00
2022-10-12T09:05:29.449Z,100.00
2022-10-12T09:08:04.260Z,100.00
2022-10-12T09:10:39.799Z,100.00
2022-10-12T09:13:11.262Z,100.00
2022-10-12T09:15:47.332Z,100.00
2022-10-12T12:27:00.135Z,27.65
2022-10-12T12:29:41.200Z,27.29
2022-10-12T12:32:13.254Z,30.60
2022-10-12T12:35:14.218Z,37.48
2022-10-12T12:38:08.892Z,40.73
2022-10-12T12:40:39.425Z,42.15
2022-10-12T12:43:50.297Z,42.64
2022-10-12T12:50:06.614Z,28.24
2022-10-12T12:52:48.241Z,25.81
2022-10-12T12:55:50.999Z,28.77
2022-10-12T12:58:44.242Z,36.52
2022-10-12T13:01:41.785Z,38.13
2022-10-12T13:04:33.457Z,37.35
2022-10-12T13:07:27.454Z,34.12
2022-10-12T13:10:18.230Z,36.36
2022-10-12T13:13:24.016Z,37.67
2022-10-12T13:16:11.825Z,40.74
2022-10-12T13:19:02.212Z,39.63
2022-10-12T13:21:41.963Z,36.01
2022-10-12T13:24:19.274Z,37.89
2022-10-12T13:26:53.154Z,36.37
2022-10-12T13:29:39.031Z,35.31
2022-10-12T13:32:22.163Z,31.82
2022-10-12T13:34:58.758Z,30.26
2022-10-12T13:37:32.404Z,28.18
2022-10-12T13:40:32.931Z,28.85
2022-10-12T13:43:34.643Z,29.97
2022-10-12T13:46:04.607Z,30.85
2022-10-12T13:48:59.009Z,30.64
2022-10-12T13:51:30.557Z,37.18
2022-10-12T13:53:59.663Z,39.93
2022-10-12T13:56:32.182Z,40.63
2022-10-12T13:59:07.102Z,41.95
2022-10-12T14:01:53.044Z,43.46
2022-10-12T14:04:34.664Z,44.06
2022-10-12T14:07:17.338Z,46.86
2022-10-12T14:09:49.684Z,48.65
2022-10-12T14:12:25.425Z,48.76
2022-10-12T14:14:56.112Z,49.58
2022-10-12T14:17:26.199Z,51.09
2022-10-12T14:20:19.027Z,53.01
2022-10-12T14:22:49.556Z,53.29
2022-10-12T14:25:21.055Z,55.30
2022-10-12T14:28:02.148Z,55.29
2022-10-12T14:30:32.921Z,56.03
2022-10-12T14:33:12.882Z,57.01
2022-10-12T14:35:48.065Z,58.53
2022-10-12T14:38:41.144Z,59.40
2022-10-12T14:41:34.373Z,61.83
2022-10-12T14:44:14.187Z,61.54
2022-10-12T14:46:49.499Z,63.19
2022-10-12T14:49:23.096Z,65.98
2022-10-12T14:51:56.151Z,69.69
2022-10-12T14:54:28.765Z,72.27
2022-10-12T14:57:03.274Z,73.81
2022-10-12T14:59:33.114Z,74.63
2022-10-12T15:02:18.578Z,79.27
2022-10-12T15:04:50.881Z,80.05
2022-10-12T15:07:25.922Z,81.53
2022-10-12T15:09:55.339Z,82.18
2022-10-12T15:12:39.404Z,82.71
2022-10-12T15:15:30.874Z,84.41
2022-10-12T15:18:00.566Z,85.53
2022-10-12T15:20:31.567Z,87.98
2022-10-12T15:23:04.136Z,88.63
2022-10-12T15:25:42.885Z,90.43
2022-10-12T15:28:14.209Z,92.22
2022-10-12T15:31:04.538Z,95.20
2022-10-12T15:33:35.485Z,95.21
2022-10-12T15:36:05.852Z,95.21
2022-10-12T15:38:40.594Z,96.32
2022-10-12T15:41:20.637Z,97.64
2022-10-12T15:43:51.211Z,100.00
2022-10-12T15:46:20.529Z,100.00
2022-10-12T15:48:54.776Z,100.00
2022-10-12T15:51:26.665Z,100.00
2022-10-12T15:54:00.104Z,100.00
2022-10-12T15:56:29.391Z,100.00
2022-10-12T15:58:58.879Z,100.00
2022-10-12T16:01:29.096Z,100.00
2022-10-12T16:04:08.666Z,100.00
2022-10-12T16:06:40.351Z,100.00
2022-10-12T16:09:23.368Z,100.00
2022-10-12T16:11:52.947Z,100.00
2022-10-12T16:14:30.124Z,100.00
2022-10-12T16:17:02.297Z,100.00
2022-10-12T16:19:38.044Z,100.00
2022-10-12T16:22:20.704Z,100.00
2022-10-12T16:24:56.099Z,100.00
2022-10-12T16:27:27.954Z,100.00
2022-10-12T16:29:57.813Z,100.00
2022-10-12T16:32:31.186Z,100.00
2022-10-12T16:35:00.522Z,100.00
2022-10-12T16:37:30.078Z,100.00
2022-10-12T16:40:02.486Z,100.00
2022-10-12T16:42:32.566Z,100.00
2022-10-12T16:45:01.929Z,100.00
2022-10-12T16:47:38.893Z,100.00
2022-10-12T16:50:14.801Z,100.00
2022-10-12T16:52:45.724Z,100.00
2022-10-12T16:55:17.389Z,100.00
2022-10-12T16:58:01.189Z,100.00
2022-10-12T17:00:35.405Z,100.00
2022-10-12T17:03:25.340Z,100.00
2022-10-12T17:06:01.070Z,100.00
2022-10-12T17:08:34.021Z,100.00
2022-10-12T17:11:13.398Z,100.00
2022-10-12T17:13:50.170Z,100.00
2022-10-12T17:17:00.091Z,100.00
2022-10-12T17:19:50.983Z,100.00
2022-10-12T17:22:23.088Z,100.00
2022-10-12T17:24:57.257Z,100.00
2022-10-12T17:27:31.418Z,100.00
2022-10-12T17:30:04.950Z,100.00
2022-10-12T17:32:38.064Z,100.00
2022-10-12T17:35:10.241Z,100.00
2022-10-12T17:37:39.333Z,100.00
2022-10-12T17:40:14.279Z,100.00
2022-10-12T17:42:44.993Z,100.00
2022-10-12T17:45:18.457Z,100.00
2022-10-12T17:47:55.925Z,100.00
2022-10-12T17:50:34.090Z,100.00
2022-10-12T17:53:05.474Z,100.00
2022-10-12T17:55:48.746Z,100.00
2022-10-12T17:58:24.435Z,100.00
2022-10-12T18:01:04.583Z,100.00
2022-10-12T18:03:38.452Z,100.00
2022-10-12T18:06:12.140Z,100.00
2022-10-12T18:08:42.395Z,100.00
2022-10-12T18:11:20.573Z,100.00
2022-10-12T18:13:58.655Z,100.00
2022-10-12T18:16:34.016Z,100.00
2022-10-12T18:19:10.550Z,100.00
2022-10-12T18:21:45.283Z,100.00
2022-10-12T18:24:18.983Z,100.00
2022-10-12T18:26:55.044Z,100.00
2022-10-12T18:29:53.544Z,100.00
2022-10-12T18:32:27.582Z,100.00
2022-10-12T18:34:57.288Z,100.00
2022-10-12T18:37:43.552Z,100.00
2022-10-12T18:40:20.178Z,100.00
2022-10-12T18:42:49.621Z,100.00
2022-10-12T18:45:26.312Z,100.00
2022-10-12T18:48:09.720Z,100.00
2022-10-12T18:50:40.097Z,100.00
2022-10-12T18:56:15.848Z,100.00
2022-10-12T18:58:49.220Z,100.00
2022-10-12T19:04:52.153Z,100.00
2022-10-12T19:07:38.381Z,100.00
2022-10-12T19:10:09.214Z,100.00
2022-10-12T19:12:58.151Z,100.00
2022-10-12T19:15:28.935Z,100.00
2022-10-12T19:17:59.710Z,100.00
2022-10-12T19:20:29.127Z,100.00
2022-10-12T19:23:06.831Z,100.00
2022-10-12T19:25:42.971Z,100.00
2022-10-12T19:28:14.659Z,100.00
2022-10-12T19:30:46.395Z,100.00
2022-10-12T19:33:20.679Z,100.00
2022-10-12T19:35:49.870Z,100.00
2022-10-12T19:38:21.540Z,100.00
2022-10-12T19:40:52.345Z,100.00
2022-10-12T19:43:21.677Z,100.00
2022-10-12T19:45:53.225Z,100.00
2022-10-12T19:48:26.654Z,100.00
2022-10-12T19:51:00.187Z,100.00
2022-10-12T19:53:31.375Z,100.00
2022-10-12T19:56:03.616Z,100.00
2022-10-12T19:58:35.260Z,100.00
2022-10-12T20:01:06.694Z,100.00
2022-10-12T20:03:37.472Z,100.00
2022-10-12T20:06:09.408Z,100.00
2022-10-12T20:08:39.112Z,100.00
2022-10-12T20:11:13.143Z,100.00
2022-10-12T20:13:46.498Z,100.00
2022-10-12T20:16:18.737Z,100.00
2022-10-12T20:18:49.919Z,100.00
2022-10-12T20:21:23.209Z,100.00
2022-10-12T20:23:54.599Z,100.00
2022-10-12T20:26:26.047Z,100.00
2022-10-12T20:29:00.115Z,100.00
2022-10-12T20:31:29.559Z,100.00
2022-10-12T20:34:14.802Z,100.00
2022-10-12T20:36:44.228Z,100.00
2022-10-12T20:39:13.155Z,100.00
2022-10-12T20:41:42.328Z,100.00
2022-10-12T20:44:13.289Z,100.00
2022-10-12T20:46:44.541Z,100.00
2022-10-12T20:49:15.644Z,100.00
2022-10-12T20:51:47.143Z,100.00
2022-10-12T20:54:19.103Z,100.00
2022-10-12T20:56:52.076Z,100.00
2022-10-12T20:59:27.278Z,100.00
2022-10-12T21:01:56.817Z,100.00
2022-10-12T21:04:27.408Z,100.00
2022-10-12T21:07:14.520Z,100.00
2022-10-12T21:09:43.928Z,100.00
2022-10-12T21:12:12.909Z,100.00
2022-10-12T21:14:41.935Z,100.00
2022-10-12T21:17:11.412Z,100.00
2022-10-12T21:19:41.733Z,100.00
2022-10-12T21:22:11.934Z,100.00
2022-10-12T21:24:40.671Z,100.00
2022-10-12T21:27:11.775Z,100.00
2022-10-12T21:29:48.032Z,100.00
2022-10-12T21:32:17.448Z,100.00
2022-10-12T21:34:49.973Z,100.00
2022-10-12T21:37:18.865Z,100.00
2022-10-12T21:39:50.783Z,100.00
2022-10-12T21:42:22.997Z,100.00
2022-10-12T21:44:51.824Z,100.00
2022-10-12T21:47:20.521Z,100.00
2022-10-12T21:49:50.815Z,100.00
2022-10-12T21:52:19.865Z,100.00
2022-10-12T21:54:48.975Z,100.00
2022-10-12T21:57:17.784Z,100.00
2022-10-12T21:59:53.017Z,100.00
2022-10-12T22:02:21.829Z,100.00
2022-10-12T22:04:51.968Z,100.00
2022-10-12T22:07:21.628Z,100.00
2022-10-12T22:09:51.014Z,100.00
2022-10-12T22:12:20.537Z,100.00
2022-10-12T22:14:49.701Z,100.00
2022-10-12T22:17:20.151Z,100.00
2022-10-12T22:19:49.785Z,100.00
2022-10-12T22:22:20.818Z,100.00
2022-10-12T22:24:50.151Z,100.00
2022-10-12T22:27:19.301Z,100.00
2022-10-12T22:29:48.348Z,100.00
2022-10-12T22:32:18.030Z,100.00
2022-10-12T22:34:47.483Z,100.00
2022-10-12T22:37:16.599Z,100.00
2022-10-12T22:39:49.550Z,100.00
2022-10-12T22:42:19.125Z,100.00
2022-10-12T22:44:49.007Z,100.00
2022-10-12T22:47:18.290Z,100.00
2022-10-12T22:49:48.026Z,100.00
2022-10-12T22:52:17.545Z,100.00
2022-10-12T22:54:50.049Z,100.00
2022-10-12T22:57:19.878Z,100.00
2022-10-12T22:59:50.617Z,100.00
2022-10-12T23:02:20.531Z,100.00
2022-10-12T23:04:50.137Z,100.00
2022-10-12T23:07:19.205Z,100.00
2022-10-12T23:09:51.257Z,100.00
2022-10-12T23:12:20.953Z,100.00
2022-10-12T23:14:51.671Z,100.00
2022-10-12T23:17:20.728Z,100.00
2022-10-12T23:19:50.046Z,100.00
2022-10-12T23:22:19.777Z,100.00
2022-10-12T23:24:53.480Z,100.00
2022-10-12T23:27:22.470Z,100.00
2022-10-12T23:29:52.041Z,100.00
2022-10-12T23:32:21.802Z,100.00
2022-10-12T23:34:50.857Z,100.00
2022-10-12T23:37:19.784Z,100.00
2022-10-12T23:39:49.356Z,100.00
2022-10-12T23:42:20.834Z,100.00
2022-10-12T23:44:53.375Z,100.00
2022-10-12T23:47:22.310Z,100.00
2022-10-12T23:49:51.147Z,100.00
2022-10-12T23:52:20.347Z,100.00
2022-10-12T23:55:17.103Z,100.00
2022-10-12T23:57:47.709Z,100.00
